Time;durP1;ratioP1;P1;durP2;ratioP2;P2;SDS_P1;SDS_P2;PMS_P1;PMS_P2;Temp;Humidity;BMP_temperature;BMP_pressure;BME280_temperature;BME280_humidity;BME280_pressure;Samples;Min_cycle;Max_cycle;Signal;HPM_P1;HPM_P2
2022/01/17 00:01:05;;;;;;;44.08;30.58;;;11.40;91.10;;;;;;5032649;28;20025;-69
2022/01/17 00:03:31;;;;;;;47.80;29.95;;;11.40;91.10;;;;;;5032574;28;20033;-68
2022/01/17 00:05:56;;;;;;;43.13;30.90;;;11.40;91.30;;;;;;5032494;28;20029;-65
2022/01/17 00:08:22;;;;;;;42.90;31.00;;;11.40;91.10;;;;;;5032828;28;20025;-68
2022/01/17 00:10:48;;;;;;;40.78;30.00;;;11.40;91.10;;;;;;5032560;28;20108;-67
2022/01/17 00:13:23;;;;;;;47.75;31.48;;;11.40;91.20;;;;;;5033804;28;20043;-69
2022/01/17 00:15:54;;;;;;;42.08;29.23;;;11.40;91.20;;;;;;5036248;28;20017;-70
2022/01/17 00:18:27;;;;;;;44.08;30.90;;;11.40;91.20;;;;;;5036178;28;20018;-68
2022/01/17 00:20:53;;;;;;;46.15;29.73;;;11.40;91.30;;;;;;5036290;28;20025;-69
2022/01/17 00:23:18;;;;;;;41.45;30.10;;;11.40;91.30;;;;;;5036044;28;20033;-69
2022/01/17 00:25:44;;;;;;;42.90;29.17;;;11.40;91.30;;;;;;5036008;28;20067;-65
2022/01/17 00:28:10;;;;;;;43.47;30.55;;;11.40;91.30;;;;;;5036058;28;20474;-68
2022/01/17 00:30:35;;;;;;;43.92;30.75;;;11.30;91.30;;;;;;5036226;28;20041;-68
2022/01/17 00:33:01;;;;;;;45.05;29.70;;;11.30;91.30;;;;;;5035600;28;20040;-69
2022/01/17 00:35:26;;;;;;;46.47;30.02;;;11.30;91.40;;;;;;5036115;28;20022;-69
2022/01/17 00:37:52;;;;;;;42.42;31.00;;;11.30;91.40;;;;;;5035862;28;20032;-70
2022/01/17 00:40:19;;;;;;;40.15;28.42;;;11.40;91.50;;;;;;5035833;28;20025;-61
2022/01/17 00:42:45;;;;;;;40.53;29.38;;;11.30;91.50;;;;;;5018098;28;20041;-63
2022/01/17 00:45:13;;;;;;;41.97;29.95;;;11.30;91.60;;;;;;5035715;28;20022;-69
2022/01/17 00:47:40;;;;;;;47.67;30.10;;;11.30;91.70;;;;;;5035426;28;20030;-68
2022/01/17 00:50:06;;;;;;;46.38;31.05;;;11.30;91.70;;;;;;5035782;28;20053;-68
2022/01/17 00:52:32;;;;;;;39.38;28.55;;;11.30;91.70;;;;;;5035645;28;20030;-67
2022/01/17 00:54:58;;;;;;;37.15;28.27;;;11.30;91.70;;;;;;5035482;28;20064;-69
2022/01/17 00:57:24;;;;;;;45.55;31.33;;;11.30;91.80;;;;;;5035675;28;20104;-69
2022/01/17 00:59:51;;;;;;;39.50;29.48;;;11.30;91.80;;;;;;5035445;28;20486;-69
2022/01/17 01:02:17;;;;;;;43.08;29.98;;;11.30;91.90;;;;;;5035059;28;20113;-67
2022/01/17 01:04:43;;;;;;;40.08;29.05;;;11.30;91.80;;;;;;5035535;28;20029;-68
2022/01/17 01:07:08;;;;;;;44.35;29.65;;;11.30;91.90;;;;;;5035155;28;20433;-68
2022/01/17 01:09:42;;;;;;;41.63;29.20;;;11.20;91.90;;;;;;5035526;28;20022;-68
2022/01/17 01:12:08;;;;;;;41.85;28.52;;;11.30;92.00;;;;;;5035314;28;20041;-69
2022/01/17 01:14:33;;;;;;;40.95;27.92;;;11.30;91.90;;;;;;5035255;28;20080;-70
2022/01/17 01:17:07;;;;;;;40.83;27.98;;;11.30;92.00;;;;;;5034901;28;20021;-68
2022/01/17 01:19:40;;;;;;;36.78;28.92;;;11.20;91.90;;;;;;5035278;28;20048;-69
2022/01/17 01:30:08;;;;;;;45.30;29.20;;;11.20;92.00;;;;;;5036970;28;20037;-69
2022/01/17 01:32:42;;;;;;;36.20;29.35;;;11.20;92.10;;;;;;5036563;28;20374;-70
2022/01/17 01:35:10;;;;;;;41.63;29.92;;;11.20;92.10;;;;;;5036392;28;20033;-68
2022/01/17 01:37:36;;;;;;;43.60;30.17;;;11.20;92.10;;;;;;5035731;28;20028;-70
2022/01/17 01:40:03;;;;;;;35.05;27.08;;;11.20;92.10;;;;;;5034832;28;20029;-69
2022/01/17 01:42:31;;;;;;;37.83;27.52;;;11.20;92.10;;;;;;5034550;28;20033;-64
2022/01/17 01:44:57;;;;;;;39.33;27.35;;;11.20;92.10;;;;;;5034288;28;20021;-68
2022/01/17 01:47:24;;;;;;;36.70;27.27;;;11.20;92.10;;;;;;5034660;28;20074;-70
2022/01/17 01:49:50;;;;;;;40.15;27.55;;;11.10;92.10;;;;;;5034758;28;20111;-69
2022/01/17 01:52:15;;;;;;;37.67;28.00;;;11.10;92.10;;;;;;5034570;28;20076;-69
2022/01/17 01:54:41;;;;;;;35.83;27.95;;;11.20;92.20;;;;;;5034226;28;20079;-69
2022/01/17 01:57:10;;;;;;;39.13;28.08;;;11.10;92.10;;;;;;5034458;28;20025;-64
2022/01/17 01:59:37;;;;;;;34.83;25.85;;;11.10;92.20;;;;;;5034060;28;20028;-66
2022/01/17 02:02:04;;;;;;;35.05;27.20;;;11.10;92.20;;;;;;5034359;28;20466;-70
2022/01/17 02:04:29;;;;;;;38.20;26.48;;;11.10;92.20;;;;;;5034068;28;20492;-64
2022/01/17 02:06:55;;;;;;;35.25;26.30;;;11.10;92.30;;;;;;5034384;28;20096;-67
2022/01/17 02:09:23;;;;;;;35.28;26.00;;;11.10;92.30;;;;;;5034333;28;20033;-70
2022/01/17 02:11:49;;;;;;;36.97;27.35;;;11.10;92.30;;;;;;5034325;28;20478;-70
2022/01/17 02:14:15;;;;;;;35.65;26.75;;;11.10;92.30;;;;;;5033482;28;20060;-70
2022/01/17 02:16:43;;;;;;;37.33;26.83;;;11.20;92.40;;;;;;5034024;28;20470;-70
2022/01/17 02:19:09;;;;;;;36.00;24.85;;;11.10;92.40;;;;;;5034083;28;20021;-70
2022/01/17 02:21:46;;;;;;;37.78;26.23;;;11.10;92.40;;;;;;5034004;28;20047;-70
2022/01/17 02:24:16;;;;;;;35.58;25.42;;;11.10;92.40;;;;;;5033965;28;20046;-68
2022/01/17 02:26:43;;;;;;;35.42;26.98;;;11.10;92.50;;;;;;5033684;28;20108;-71
2022/01/17 02:29:09;;;;;;;35.22;26.33;;;11.10;92.40;;;;;;5033341;28;20063;-71
2022/01/17 02:31:36;;;;;;;33.53;25.38;;;11.10;92.40;;;;;;5033946;28;20100;-70
2022/01/17 02:34:03;;;;;;;34.35;25.67;;;11.10;92.50;;;;;;5033743;28;20026;-71
2022/01/17 02:36:29;;;;;;;39.10;26.77;;;11.10;92.50;;;;;;5033038;28;20018;-70
2022/01/17 02:38:55;;;;;;;35.00;26.33;;;11.10;92.50;;;;;;5033610;28;20471;-70
2022/01/17 02:41:20;;;;;;;34.25;25.40;;;11.10;92.50;;;;;;5033525;28;20032;-70
2022/01/17 02:43:47;;;;;;;31.52;25.45;;;11.10;92.60;;;;;;5033329;28;20381;-70
2022/01/17 02:48:40;;;;;;;32.45;25.35;;;11.00;92.60;;;;;;5033687;28;20159;-68
2022/01/17 02:51:07;;;;;;;31.27;24.10;;;11.10;92.70;;;;;;5033393;28;20096;-69
2022/01/17 02:53:33;;;;;;;32.28;25.52;;;11.10;92.60;;;;;;5033351;28;20052;-70
2022/01/17 02:56:01;;;;;;;34.72;25.52;;;11.10;92.70;;;;;;5033154;28;20030;-70
2022/01/17 02:58:28;;;;;;;32.50;26.20;;;11.10;92.60;;;;;;5033127;28;20025;-70
2022/01/17 03:00:57;;;;;;;30.67;25.65;;;11.10;92.70;;;;;;5033346;28;20079;-70
2022/01/17 03:03:25;;;;;;;32.55;24.95;;;11.00;92.70;;;;;;5033179;28;20034;-70
2022/01/17 03:05:52;;;;;;;34.85;25.95;;;11.00;92.70;;;;;;5033137;28;20021;-70
2022/01/17 03:08:20;;;;;;;33.33;24.85;;;11.00;92.70;;;;;;5033172;28;20026;-70
2022/01/17 03:10:49;;;;;;;34.17;25.15;;;11.00;92.70;;;;;;5033300;28;20048;-71
2022/01/17 03:13:19;;;;;;;35.17;25.13;;;11.00;92.80;;;;;;5032786;28;20478;-68
2022/01/17 03:15:47;;;;;;;29.30;24.25;;;11.00;92.80;;;;;;5033124;28;20044;-70
2022/01/17 03:18:13;;;;;;;31.52;24.05;;;11.00;92.90;;;;;;5033027;28;20506;-70
2022/01/17 03:20:38;;;;;;;32.70;24.48;;;11.00;92.80;;;;;;5032929;28;20022;-70
2022/01/17 03:23:08;;;;;;;31.75;23.90;;;11.00;92.80;;;;;;5032832;28;20046;-70
2022/01/17 03:25:34;;;;;;;28.70;23.17;;;11.00;92.90;;;;;;5032909;28;20448;-71
2022/01/17 03:28:00;;;;;;;26.98;23.05;;;11.00;92.90;;;;;;5032822;28;20061;-71
2022/01/17 03:30:27;;;;;;;30.58;23.92;;;11.00;92.90;;;;;;5032675;28;20018;-70
2022/01/17 03:32:53;;;;;;;32.15;23.27;;;11.00;92.90;;;;;;5015671;28;20021;-71
2022/01/17 03:35:19;;;;;;;30.80;23.70;;;11.00;92.90;;;;;;5032842;28;20021;-70
2022/01/17 03:37:45;;;;;;;28.63;22.67;;;11.00;93.20;;;;;;5032892;28;20044;-70
2022/01/17 03:40:12;;;;;;;29.95;22.67;;;11.00;93.00;;;;;;5032463;28;20459;-70
2022/01/17 03:42:38;;;;;;;31.20;23.77;;;11.00;92.90;;;;;;5032799;28;20037;-70
2022/01/17 03:45:07;;;;;;;25.38;20.55;;;11.00;92.80;;;;;;5032883;28;20037;-71
2022/01/17 03:47:38;;;;;;;23.25;20.13;;;11.00;92.70;;;;;;5034791;28;20026;-70
2022/01/17 03:50:07;;;;;;;25.67;21.90;;;11.00;92.50;;;;;;5036781;28;20017;-70
2022/01/17 03:52:32;;;;;;;27.15;21.85;;;10.90;92.40;;;;;;5036660;28;20109;-69
2022/01/17 03:54:58;;;;;;;24.40;19.60;;;10.90;92.30;;;;;;5036486;28;20091;-70
2022/01/17 03:57:24;;;;;;;29.58;21.95;;;10.90;92.20;;;;;;5036418;28;20033;-70
2022/01/17 03:59:50;;;;;;;33.58;22.92;;;10.90;92.20;;;;;;5037090;28;20028;-70
2022/01/17 04:02:15;;;;;;;25.70;21.33;;;10.80;92.20;;;;;;5036401;28;20026;-68
2022/01/17 04:04:41;;;;;;;25.20;22.17;;;10.80;92.20;;;;;;5036530;28;20544;-66
2022/01/17 04:07:07;;;;;;;26.88;21.92;;;10.80;92.20;;;;;;5036667;28;20026;-70
2022/01/17 04:09:32;;;;;;;28.25;21.40;;;10.80;92.20;;;;;;5036235;28;20425;-70
2022/01/17 04:11:58;;;;;;;26.23;21.25;;;10.80;92.20;;;;;;5036316;28;20514;-70
2022/01/17 04:14:23;;;;;;;26.60;21.20;;;10.80;92.10;;;;;;5036343;28;20041;-71
2022/01/17 04:16:49;;;;;;;23.48;19.60;;;10.70;92.00;;;;;;5036205;28;20053;-67
2022/01/17 04:19:17;;;;;;;26.95;22.10;;;10.70;92.10;;;;;;5036429;28;20091;-67
2022/01/17 04:21:47;;;;;;;77.65;26.08;;;10.70;92.20;;;;;;5035986;28;20025;-73
2022/01/17 04:24:13;;;;;;;22.77;18.17;;;10.70;90.80;;;;;;5036030;28;20499;-72
2022/01/17 04:26:39;;;;;;;23.67;19.10;;;10.80;89.20;;;;;;5035964;28;20466;-73
2022/01/17 04:29:05;;;;;;;22.90;18.67;;;10.90;88.90;;;;;;5036199;28;20037;-73
2022/01/17 04:31:31;;;;;;;21.92;17.83;;;11.00;88.50;;;;;;5035918;28;20021;-72
2022/01/17 04:33:56;;;;;;;22.25;18.20;;;11.10;88.20;;;;;;5036091;28;20034;-73
2022/01/17 04:36:22;;;;;;;23.48;19.65;;;11.10;88.30;;;;;;5035922;28;20027;-73
2022/01/17 04:38:48;;;;;;;22.30;18.55;;;11.10;88.50;;;;;;5035865;28;20112;-73
2022/01/17 04:41:16;;;;;;;24.88;18.50;;;11.10;88.30;;;;;;5034672;28;20474;-73
2022/01/17 04:43:55;;;;;;;20.50;17.33;;;11.20;88.10;;;;;;5035829;28;20033;-73
2022/01/17 04:46:21;;;;;;;24.73;19.77;;;11.20;88.00;;;;;;5035545;28;20024;-73
2022/01/17 04:48:47;;;;;;;22.20;18.13;;;11.20;88.20;;;;;;5035655;28;20387;-74
2022/01/17 04:51:12;;;;;;;25.27;18.55;;;11.20;88.20;;;;;;5035989;28;20021;-74
2022/01/17 04:53:40;;;;;;;21.58;18.08;;;11.30;88.10;;;;;;5035131;28;20037;-73
2022/01/17 04:56:05;;;;;;;22.73;18.17;;;11.20;88.20;;;;;;5035627;28;20069;-73
2022/01/17 04:58:31;;;;;;;21.20;18.98;;;11.10;88.30;;;;;;5034782;28;20461;-73
2022/01/17 05:00:57;;;;;;;25.70;19.05;;;11.20;88.40;;;;;;5035629;28;20119;-73
2022/01/17 05:03:25;;;;;;;26.10;18.52;;;11.20;88.40;;;;;;5035263;28;20029;-73
2022/01/17 05:05:51;;;;;;;21.58;18.42;;;11.20;88.40;;;;;;5035463;28;20026;-73
2022/01/17 05:08:17;;;;;;;24.27;18.83;;;11.20;88.40;;;;;;5035072;28;20021;-73
2022/01/17 05:10:46;;;;;;;22.30;19.65;;;11.20;88.40;;;;;;5035237;28;20037;-72
2022/01/17 05:13:17;;;;;;;22.95;19.02;;;11.20;88.30;;;;;;5035131;28;20451;-72
2022/01/17 05:15:49;;;;;;;22.67;19.35;;;11.20;88.30;;;;;;5035309;28;20544;-73
2022/01/17 05:20:59;;;;;;;23.55;18.45;;;11.20;88.40;;;;;;5035324;28;20132;-73
2022/01/17 05:23:24;;;;;;;23.42;19.17;;;11.20;88.30;;;;;;5034513;28;20120;-73
2022/01/17 05:25:50;;;;;;;22.30;19.30;;;11.20;88.30;;;;;;5035028;28;20036;-72
2022/01/17 05:28:16;;;;;;;25.35;19.27;;;11.10;88.40;;;;;;5034845;28;20496;-72
2022/01/17 05:30:42;;;;;;;23.77;19.15;;;11.10;88.50;;;;;;5035042;28;20022;-73
2022/01/17 05:33:07;;;;;;;23.15;18.27;;;11.10;88.60;;;;;;5034834;28;20028;-72
2022/01/17 05:35:33;;;;;;;21.77;19.48;;;11.00;88.70;;;;;;5034814;28;20057;-73
2022/01/17 05:38:00;;;;;;;24.50;19.27;;;11.10;88.80;;;;;;5034476;28;20108;-73
2022/01/17 05:40:25;;;;;;;23.02;19.83;;;11.00;89.20;;;;;;5034759;28;20013;-74
2022/01/17 05:42:51;;;;;;;24.58;18.90;;;11.00;90.00;;;;;;5034616;28;20041;-73
2022/01/17 05:45:17;;;;;;;22.60;19.17;;;10.90;90.30;;;;;;5034860;28;20024;-72
2022/01/17 05:47:44;;;;;;;26.85;20.92;;;10.80;90.60;;;;;;5034616;28;20420;-74
2022/01/17 05:50:10;;;;;;;23.77;20.25;;;10.80;90.50;;;;;;5034536;28;20462;-73
2022/01/17 05:52:36;;;;;;;26.25;21.52;;;10.90;90.60;;;;;;5034146;28;20051;-73
2022/01/17 05:55:06;;;;;;;26.15;21.50;;;10.90;90.80;;;;;;5016735;28;20124;-73
2022/01/17 05:57:31;;;;;;;27.15;21.73;;;10.90;90.70;;;;;;5034401;28;20470;-73
2022/01/17 05:59:58;;;;;;;26.77;22.90;;;10.90;90.60;;;;;;5034278;28;20032;-73
2022/01/17 06:02:24;;;;;;;27.52;23.77;;;10.90;90.70;;;;;;5034428;28;20029;-73
2022/01/17 06:04:50;;;;;;;31.58;24.27;;;11.00;91.00;;;;;;5034176;28;20026;-73
2022/01/17 06:07:15;;;;;;;28.08;23.27;;;11.00;90.70;;;;;;5034182;28;20029;-73
2022/01/17 06:09:41;;;;;;;28.67;23.25;;;11.00;90.70;;;;;;5032578;28;20360;-73
2022/01/17 06:12:07;;;;;;;28.77;23.88;;;11.00;90.80;;;;;;5033469;28;20029;-74
2022/01/17 06:14:33;;;;;;;30.25;25.05;;;11.00;90.90;;;;;;5033676;28;20029;-74
2022/01/17 06:16:58;;;;;;;35.10;27.00;;;11.00;91.00;;;;;;5023207;28;20088;-73
2022/01/17 06:19:24;;;;;;;33.40;27.00;;;11.00;91.10;;;;;;5027425;28;20025;-73
2022/01/17 06:21:49;;;;;;;35.47;27.45;;;11.00;91.20;;;;;;5025556;28;20370;-74
2022/01/17 06:24:16;;;;;;;31.50;26.52;;;11.00;91.20;;;;;;5024160;28;20487;-74
2022/01/17 06:26:42;;;;;;;32.63;26.13;;;11.00;91.20;;;;;;5030949;28;20025;-74
2022/01/17 06:29:11;;;;;;;30.38;25.52;;;11.00;91.30;;;;;;5033899;28;20026;-73
2022/01/17 06:31:36;;;;;;;28.83;25.10;;;11.00;91.30;;;;;;5025328;28;20024;-73
2022/01/17 06:34:03;;;;;;;31.35;24.48;;;11.00;91.40;;;;;;5025407;28;20100;-73
2022/01/17 06:36:29;;;;;;;30.38;24.52;;;11.00;91.50;;;;;;5032841;28;20057;-73
2022/01/17 06:38:56;;;;;;;30.02;22.25;;;11.00;91.60;;;;;;5033271;28;20030;-66
2022/01/17 06:41:22;;;;;;;34.10;25.58;;;10.80;92.30;;;;;;5033201;28;20021;-67
2022/01/17 06:43:47;;;;;;;28.17;23.98;;;10.30;93.60;;;;;;5033693;28;20037;-68
2022/01/17 06:46:14;;;;;;;30.25;24.10;;;10.10;94.30;;;;;;5032100;28;20498;-67
2022/01/17 06:48:40;;;;;;;27.38;23.75;;;10.00;94.70;;;;;;5033017;28;20155;-68
2022/01/17 06:51:06;;;;;;;30.60;25.25;;;10.00;94.90;;;;;;5033386;28;20040;-68
2022/01/17 06:53:32;;;;;;;33.50;25.20;;;10.00;94.80;;;;;;5021439;28;20022;-68
2022/01/17 06:55:59;;;;;;;26.55;21.00;;;10.10;94.70;;;;;;5023497;28;20092;-67
2022/01/17 06:58:25;;;;;;;26.08;20.80;;;10.10;94.80;;;;;;5031863;28;20458;-67
2022/01/17 07:00:51;;;;;;;29.02;22.30;;;10.20;94.50;;;;;;5032937;28;20032;-66
2022/01/17 07:03:16;;;;;;;25.95;21.55;;;10.10;94.90;;;;;;5026845;28;20041;-66
2022/01/17 07:05:42;;;;;;;25.80;21.85;;;10.00;95.20;;;;;;5025604;28;20037;-67
2022/01/17 07:08:08;;;;;;;28.92;21.50;;;9.90;95.50;;;;;;5019210;28;20096;-66
2022/01/17 07:10:35;;;;;;;25.00;20.17;;;9.80;95.60;;;;;;5024899;28;20112;-66
2022/01/17 07:13:00;;;;;;;34.10;20.75;;;9.80;95.60;;;;;;5031730;28;20041;-67
2022/01/17 07:15:26;;;;;;;31.25;20.45;;;9.80;95.70;;;;;;5028345;28;20052;-67
2022/01/17 07:17:51;;;;;;;28.27;20.48;;;9.70;95.90;;;;;;5014783;28;20046;-67
2022/01/17 07:20:17;;;;;;;36.92;23.13;;;9.80;95.90;;;;;;5026948;28;20036;-67
2022/01/17 07:22:43;;;;;;;29.75;21.50;;;9.80;95.70;;;;;;5025090;28;20040;-67
2022/01/17 07:25:09;;;;;;;26.80;18.80;;;9.90;95.70;;;;;;5019951;28;20432;-66
2022/01/17 07:27:36;;;;;;;23.55;17.27;;;10.00;95.50;;;;;;5023729;28;20036;-66
2022/01/17 07:30:05;;;;;;;25.48;18.35;;;10.10;95.30;;;;;;5024083;28;20044;-66
2022/01/17 07:32:31;;;;;;;29.17;18.45;;;10.00;95.30;;;;;;5016023;28;20512;-66
2022/01/17 07:34:56;;;;;;;25.60;16.70;;;9.90;95.30;;;;;;5018464;28;20053;-66
2022/01/17 07:37:22;;;;;;;23.00;14.63;;;10.00;95.50;;;;;;5029829;28;20116;-67
2022/01/17 07:39:48;;;;;;;17.25;12.20;;;10.10;95.30;;;;;;5037938;28;20105;-67
2022/01/17 07:42:13;;;;;;;18.02;11.52;;;10.40;95.20;;;;;;5020170;28;20044;-66
2022/01/17 07:44:43;;;;;;;19.88;10.57;;;10.50;95.10;;;;;;5022189;28;20025;-67
2022/01/17 07:47:17;;;;;;;15.63;10.38;;;10.70;95.10;;;;;;5030925;28;20033;-66
2022/01/17 07:49:45;;;;;;;16.60;10.70;;;10.80;95.10;;;;;;5026459;28;20010;-67
2022/01/17 07:52:11;;;;;;;22.15;14.05;;;10.80;95.00;;;;;;5029378;28;20021;-66
2022/01/17 07:54:43;;;;;;;27.52;15.63;;;10.60;94.50;;;;;;5013499;28;20041;-66
2022/01/17 07:57:10;;;;;;;26.30;15.35;;;10.40;94.30;;;;;;5013753;28;20030;-67
2022/01/17 07:59:36;;;;;;;24.50;15.95;;;10.30;94.30;;;;;;5021360;28;20040;-67
2022/01/17 08:02:02;;;;;;;21.15;14.38;;;10.20;94.40;;;;;;5030209;28;20042;-67
2022/01/17 08:04:28;;;;;;;25.90;13.82;;;10.20;94.60;;;;;;5024070;28;20049;-66
2022/01/17 08:06:59;;;;;;;27.95;16.85;;;10.30;94.30;;;;;;5024774;28;20083;-67
2022/01/17 08:09:30;;;;;;;28.88;14.75;;;10.30;94.20;;;;;;5014662;28;20109;-67
2022/01/17 08:11:57;;;;;;;24.05;12.98;;;10.10;94.20;;;;;;5022304;28;20387;-67
2022/01/17 08:14:24;;;;;;;23.30;12.80;;;10.10;94.30;;;;;;5020752;28;20376;-67
2022/01/17 08:16:50;;;;;;;25.27;12.43;;;10.10;94.20;;;;;;5029607;28;20025;-66
2022/01/17 08:19:16;;;;;;;22.30;9.43;;;10.10;94.10;;;;;;5012508;28;20125;-66
2022/01/17 08:21:41;;;;;;;23.38;9.35;;;10.30;94.30;;;;;;5021240;28;20128;-66
2022/01/17 08:24:07;;;;;;;28.30;10.38;;;10.50;94.00;;;;;;5011202;28;20064;-66
2022/01/17 08:26:33;;;;;;;24.45;12.00;;;10.70;93.80;;;;;;5017266;28;20482;-66
2022/01/17 08:28:59;;;;;;;23.90;10.93;;;10.60;93.40;;;;;;5016762;28;20455;-66
2022/01/17 08:31:29;;;;;;;21.80;10.40;;;10.50;93.30;;;;;;5007813;28;20427;-69
2022/01/17 08:34:01;;;;;;;22.15;10.68;;;10.30;93.30;;;;;;4999387;28;20035;-66
2022/01/17 08:36:27;;;;;;;21.15;11.18;;;10.30;93.40;;;;;;5024686;28;20021;-67
2022/01/17 08:38:53;;;;;;;20.98;11.38;;;10.20;93.40;;;;;;5026036;28;20034;-67
2022/01/17 08:41:19;;;;;;;21.98;10.27;;;10.20;93.40;;;;;;5025002;28;20121;-66
2022/01/17 08:43:49;;;;;;;26.25;10.73;;;10.20;93.40;;;;;;5008693;28;20081;-67
2022/01/17 08:46:15;;;;;;;24.10;11.18;;;10.10;93.40;;;;;;5020722;28;20108;-66
2022/01/17 08:48:42;;;;;;;20.27;11.98;;;10.20;93.30;;;;;;5022010;28;20156;-66
2022/01/17 08:51:08;;;;;;;21.98;12.25;;;10.10;93.30;;;;;;5035378;28;20382;-68
2022/01/17 08:53:39;;;;;;;21.02;11.80;;;10.10;93.50;;;;;;5029699;28;20091;-67
2022/01/17 08:56:05;;;;;;;21.75;10.05;;;10.00;93.70;;;;;;5012091;28;20049;-67
2022/01/17 08:58:31;;;;;;;20.35;10.38;;;10.20;94.00;;;;;;5011883;28;20092;-67
2022/01/17 09:00:57;;;;;;;23.05;10.50;;;10.40;93.40;;;;;;5002823;28;20034;-67
2022/01/17 09:03:26;;;;;;;23.92;11.15;;;10.30;93.30;;;;;;5030029;28;20037;-68
2022/01/17 09:05:53;;;;;;;25.67;10.85;;;10.20;93.30;;;;;;5015682;28;20026;-65
2022/01/17 09:08:19;;;;;;;26.52;11.10;;;10.10;93.50;;;;;;5022177;28;20022;-66
2022/01/17 09:10:45;;;;;;;19.98;10.32;;;10.10;93.60;;;;;;5020579;28;20037;-66
2022/01/17 09:13:11;;;;;;;27.02;10.75;;;10.10;93.80;;;;;;5023963;28;20036;-67
2022/01/17 09:15:37;;;;;;;24.98;10.50;;;10.10;93.90;;;;;;5022561;28;20466;-67
2022/01/17 09:18:06;;;;;;;20.98;11.93;;;10.10;93.90;;;;;;5023133;28;20071;-66
2022/01/17 09:20:34;;;;;;;24.77;11.80;;;10.10;94.20;;;;;;5018869;28;20350;-66
2022/01/17 09:23:02;;;;;;;22.30;11.43;;;10.20;93.60;;;;;;5022580;28;20061;-66
2022/01/17 09:25:27;;;;;;;23.33;11.40;;;10.30;93.50;;;;;;5026887;28;20033;-66
2022/01/17 09:27:53;;;;;;;22.40;11.27;;;10.30;93.50;;;;;;5003007;28;20434;-66
2022/01/17 09:30:18;;;;;;;26.30;10.88;;;10.30;93.50;;;;;;5020075;28;20442;-66
2022/01/17 09:32:45;;;;;;;20.02;9.93;;;10.30;93.60;;;;;;5020179;28;20372;-66
2022/01/17 09:35:11;;;;;;;20.92;9.88;;;10.30;93.60;;;;;;5019771;28;20493;-66
2022/01/17 09:37:38;;;;;;;23.05;10.73;;;10.30;93.50;;;;;;5019116;28;20116;-66
2022/01/17 09:40:05;;;;;;;20.48;9.07;;;10.30;93.50;;;;;;5022491;28;20029;-66
2022/01/17 09:42:35;;;;;;;23.23;9.50;;;10.30;93.50;;;;;;5017650;28;20381;-66
2022/01/17 09:45:03;;;;;;;20.48;9.20;;;10.30;93.50;;;;;;5016646;28;20018;-66
2022/01/17 09:47:29;;;;;;;21.33;8.77;;;10.30;93.30;;;;;;5020530;28;20065;-66
2022/01/17 09:49:56;;;;;;;29.25;9.93;;;10.30;93.40;;;;;;5021872;28;20100;-67
2022/01/17 09:52:34;;;;;;;23.83;8.60;;;10.30;93.30;;;;;;5017401;28;20106;-66
2022/01/17 09:55:24;;;;;;;27.73;9.48;;;10.30;93.20;;;;;;5021341;28;20036;-66
2022/01/17 09:57:51;;;;;;;22.15;9.95;;;10.40;93.30;;;;;;5025088;28;20048;-66
2022/01/17 10:00:19;;;;;;;22.30;10.30;;;10.30;93.30;;;;;;5024172;28;20033;-66
2022/01/17 10:02:45;;;;;;;18.52;8.95;;;10.30;93.50;;;;;;5021542;28;20171;-67
2022/01/17 10:05:10;;;;;;;19.10;8.43;;;10.30;93.50;;;;;;5022706;28;20113;-66
2022/01/17 10:08:05;;;;;;;18.95;7.72;;;10.30;93.50;;;;;;5018778;28;20029;-67
2022/01/17 10:10:57;;;;;;;23.90;8.00;;;10.40;93.50;;;;;;5011438;28;20107;-66
2022/01/17 10:13:34;;;;;;;26.38;7.38;;;10.40;93.60;;;;;;5015707;28;20471;-67
2022/01/17 10:16:04;;;;;;;21.40;7.68;;;10.50;93.50;;;;;;5020298;28;20037;-65
2022/01/17 10:18:53;;;;;;;23.40;7.35;;;10.40;93.50;;;;;;5024903;28;20021;-66
2022/01/17 10:21:29;;;;;;;20.75;7.25;;;10.50;93.60;;;;;;5027100;28;20518;-66
2022/01/17 10:37:22;;;;;;;18.20;7.05;;;10.50;93.50;;;;;;5021769;28;20109;-67
2022/01/17 10:40:01;;;;;;;16.95;6.00;;;10.60;93.50;;;;;;5025021;28;20467;-66
2022/01/17 10:42:41;;;;;;;17.70;6.63;;;10.60;93.60;;;;;;5037058;28;20026;-65
2022/01/17 10:45:20;;;;;;;20.73;6.68;;;10.70;93.60;;;;;;5022483;28;20551;-65
2022/01/17 10:47:50;;;;;;;16.40;5.60;;;10.70;93.60;;;;;;5020693;28;20029;-65
2022/01/17 10:50:26;;;;;;;19.55;6.63;;;10.90;93.40;;;;;;5023615;28;20026;-65
2022/01/17 10:52:54;;;;;;;19.73;6.30;;;10.90;93.30;;;;;;5024959;28;20025;-65
2022/01/17 10:55:25;;;;;;;18.60;6.55;;;10.90;93.10;;;;;;5025775;28;20084;-66
2022/01/17 10:58:07;;;;;;;21.73;5.40;;;11.00;92.90;;;;;;5020372;28;20506;-66
2022/01/17 11:00:56;;;;;;;15.98;5.13;;;11.00;92.90;;;;;;4999032;28;20072;-66
2022/01/17 11:03:26;;;;;;;17.13;6.00;;;10.90;93.10;;;;;;5015981;28;20046;-66
2022/01/17 11:05:53;;;;;;;15.88;4.88;;;11.00;92.80;;;;;;5019341;28;20109;-66
2022/01/17 11:08:30;;;;;;;20.17;5.63;;;11.10;92.40;;;;;;5026409;28;20083;-65
2022/01/17 11:10:58;;;;;;;21.13;5.75;;;11.00;92.50;;;;;;5003142;28;20022;-68
2022/01/17 11:13:28;;;;;;;14.68;5.60;;;11.10;92.40;;;;;;5001887;28;20061;-67
2022/01/17 11:16:04;;;;;;;15.10;6.10;;;11.20;92.40;;;;;;5018091;28;20028;-66
2022/01/17 11:18:31;;;;;;;19.83;5.00;;;11.40;92.50;;;;;;5025364;28;20030;-67
2022/01/17 11:21:10;;;;;;;22.38;5.43;;;11.40;92.40;;;;;;5027057;28;20021;-67
2022/01/17 11:23:38;;;;;;;18.02;4.82;;;11.50;92.40;;;;;;5019004;28;20029;-67
2022/01/17 11:26:05;;;;;;;15.75;4.90;;;11.60;92.70;;;;;;5026683;28;20076;-67
2022/01/17 11:28:33;;;;;;;15.65;4.72;;;11.60;92.70;;;;;;5017647;28;20018;-67
2022/01/17 11:31:02;;;;;;;19.15;5.05;;;11.70;93.10;;;;;;5022811;28;20352;-66
2022/01/17 11:33:28;;;;;;;19.67;5.50;;;11.80;93.70;;;;;;5020559;28;20029;-66
2022/01/17 11:35:54;;;;;;;18.00;5.60;;;12.00;94.50;;;;;;5028645;28;20025;-66
2022/01/17 11:38:24;;;;;;;14.20;4.20;;;12.00;92.60;;;;;;5031691;28;20034;-67
2022/01/17 11:40:51;;;;;;;17.35;5.13;;;12.00;93.00;;;;;;5030888;28;20060;-65
2022/01/17 11:43:35;;;;;;;17.45;4.72;;;12.10;92.80;;;;;;5031618;28;20038;-65
2022/01/17 11:46:03;;;;;;;18.73;4.18;;;12.20;92.00;;;;;;5032669;28;20022;-67
2022/01/17 11:48:30;;;;;;;17.08;5.10;;;12.20;92.30;;;;;;5020464;28;20030;-65
2022/01/17 11:50:59;;;;;;;17.17;5.65;;;12.30;91.60;;;;;;5021263;28;20479;-65
2022/01/17 11:53:26;;;;;;;14.55;3.90;;;12.20;91.80;;;;;;5009680;28;20395;-66
2022/01/17 11:55:52;;;;;;;17.83;4.68;;;12.30;92.10;;;;;;5010344;28;20037;-66
2022/01/17 11:58:24;;;;;;;17.05;4.82;;;12.30;91.80;;;;;;5023551;28;20009;-66
2022/01/17 12:00:59;;;;;;;17.98;4.20;;;12.20;91.70;;;;;;5022177;28;20037;-66
2022/01/17 12:03:54;;;;;;;15.27;4.95;;;12.30;91.90;;;;;;5030864;28;20083;-66
2022/01/17 12:06:23;;;;;;;18.15;5.13;;;12.30;91.40;;;;;;5023752;28;20034;-67
2022/01/17 12:09:21;;;;;;;17.92;5.03;;;12.20;91.00;;;;;;5024573;28;20064;-67
2022/01/17 12:12:07;;;;;;;19.23;4.68;;;12.10;90.70;;;;;;5023393;28;20574;-67
2022/01/17 12:14:34;;;;;;;18.10;5.00;;;12.00;90.80;;;;;;5009013;28;20046;-66
2022/01/17 12:17:21;;;;;;;17.70;5.38;;;12.00;90.60;;;;;;5018266;28;20029;-66
2022/01/17 12:20:09;;;;;;;15.45;5.03;;;11.90;90.80;;;;;;5010661;28;20033;-67
2022/01/17 12:22:43;;;;;;;13.10;4.97;;;12.00;90.60;;;;;;5021431;28;20029;-66
2022/01/17 12:25:38;;;;;;;14.20;4.32;;;11.90;90.70;;;;;;5021269;28;20183;-66
2022/01/17 12:28:04;;;;;;;19.08;4.88;;;12.00;90.60;;;;;;4999166;28;20431;-67
2022/01/17 12:30:47;;;;;;;18.65;4.72;;;12.00;90.50;;;;;;5000311;28;20034;-66
2022/01/17 12:33:28;;;;;;;19.13;4.88;;;11.90;90.40;;;;;;5031293;28;20025;-67
2022/01/17 12:35:55;;;;;;;15.07;4.38;;;11.90;90.60;;;;;;5024335;28;20040;-67
2022/01/17 12:38:36;;;;;;;13.88;5.68;;;11.90;90.70;;;;;;5022914;28;20018;-66
2022/01/17 12:41:04;;;;;;;13.93;4.65;;;12.00;90.60;;;;;;5017738;28;20030;-67
2022/01/17 12:43:35;;;;;;;15.02;4.20;;;12.00;90.50;;;;;;5008486;28;20116;-66
2022/01/17 12:46:05;;;;;;;18.65;5.50;;;11.90;90.60;;;;;;5023936;28;20034;-67
2022/01/17 12:48:34;;;;;;;15.02;5.00;;;11.90;90.60;;;;;;5030217;28;20024;-66
2022/01/17 12:51:03;;;;;;;18.98;4.55;;;12.00;90.70;;;;;;5028075;28;20556;-66
2022/01/17 12:53:30;;;;;;;20.00;4.40;;;12.00;90.70;;;;;;5028972;28;20163;-66
2022/01/17 12:56:05;;;;;;;17.88;4.43;;;12.00;90.60;;;;;;5023766;28;20072;-67
2022/01/17 12:58:37;;;;;;;12.02;3.72;;;12.00;90.50;;;;;;5022572;28;20102;-66
2022/01/17 13:01:20;;;;;;;16.27;4.87;;;12.00;90.40;;;;;;5021488;28;20036;-66
2022/01/17 13:03:47;;;;;;;12.73;4.22;;;12.00;90.50;;;;;;5022374;28;20068;-67